createdAt,value
2023-02-01T00:00:12.491Z,5.10
2023-02-01T00:02:41.721Z,5.10
2023-02-01T00:05:11.787Z,5.20
2023-02-01T00:07:39.765Z,5.20
2023-02-01T00:10:09.125Z,5.30
2023-02-01T00:12:37.063Z,5.40
2023-02-01T00:15:05.361Z,5.30
2023-02-01T00:17:33.283Z,5.30
2023-02-01T00:20:01.063Z,5.40
2023-02-01T00:22:50.154Z,5.40
2023-02-01T00:25:18.126Z,5.40
2023-02-01T00:27:50.079Z,5.40
2023-02-01T00:30:19.171Z,5.40
2023-02-01T00:32:47.225Z,5.40
2023-02-01T00:35:15.180Z,5.40
2023-02-01T00:37:43.059Z,5.40
2023-02-01T00:40:13.382Z,5.40
2023-02-01T00:42:41.177Z,5.40
2023-02-01T00:45:10.058Z,5.50
2023-02-01T00:47:37.868Z,5.50
2023-02-01T00:50:06.640Z,5.50
2023-02-01T00:52:34.443Z,5.50
2023-02-01T00:55:02.279Z,5.50
2023-02-01T00:57:31.533Z,5.50
2023-02-01T00:59:59.561Z,5.50
2023-02-01T01:02:28.638Z,5.60
2023-02-01T01:04:56.627Z,5.60
2023-02-01T01:07:24.686Z,5.60
2023-02-01T01:09:52.506Z,5.60
2023-02-01T01:12:20.689Z,5.60
2023-02-01T01:14:49.983Z,5.60
2023-02-01T01:17:17.843Z,5.70
2023-02-01T01:19:45.645Z,5.70
2023-02-01T01:22:13.463Z,5.70
2023-02-01T01:24:41.247Z,5.60
2023-02-01T01:27:09.074Z,5.60
2023-02-01T01:29:36.878Z,5.60
2023-02-01T01:32:06.216Z,5.60
2023-02-01T01:34:34.056Z,5.50
2023-02-01T01:37:01.858Z,5.60
2023-02-01T01:39:29.740Z,5.60
2023-02-01T01:41:57.689Z,5.60
2023-02-01T01:45:01.371Z,5.60
2023-02-01T01:47:34.109Z,5.60
2023-02-01T01:50:03.151Z,5.60
2023-02-01T01:52:31.160Z,5.60
2023-02-01T01:55:00.794Z,5.60
2023-02-01T01:57:31.701Z,5.60
2023-02-01T02:00:04.492Z,5.60
2023-02-01T02:02:33.757Z,5.60
2023-02-01T02:05:01.782Z,5.60
2023-02-01T02:07:33.519Z,5.60
2023-02-01T02:10:02.053Z,5.60
2023-02-01T02:12:30.246Z,5.60
2023-02-01T02:14:58.297Z,5.60
2023-02-01T02:17:39.431Z,5.60
2023-02-01T02:20:43.244Z,5.60
2023-02-01T02:23:47.506Z,5.60
2023-02-01T02:26:30.124Z,5.50
2023-02-01T02:29:45.309Z,5.50
2023-02-01T02:32:54.092Z,5.60
2023-02-01T02:35:32.377Z,5.50
2023-02-01T02:38:11.709Z,5.60
2023-02-01T02:40:47.572Z,5.60
2023-02-01T02:43:55.100Z,5.70
2023-02-01T02:46:43.873Z,5.90
2023-02-01T02:49:16.921Z,6.10
2023-02-01T02:52:10.134Z,6.20
2023-02-01T02:54:52.799Z,6.30
2023-02-01T02:57:41.882Z,6.40
2023-02-01T03:00:31.781Z,6.40
2023-02-01T03:03:16.989Z,6.40
2023-02-01T03:05:47.711Z,6.60
2023-02-01T03:08:18.594Z,6.50
2023-02-01T03:10:51.845Z,6.60
2023-02-01T03:13:25.918Z,6.50
2023-02-01T03:16:00.668Z,6.60
2023-02-01T03:18:34.072Z,6.60
2023-02-01T03:21:06.068Z,6.60
2023-02-01T03:23:39.302Z,6.50
2023-02-01T03:26:11.523Z,6.50
2023-02-01T03:28:44.323Z,6.40
2023-02-01T03:31:12.395Z,6.40
2023-02-01T03:33:40.290Z,6.40
2023-02-01T03:36:17.816Z,6.40
2023-02-01T03:38:52.572Z,6.30
2023-02-01T03:41:26.374Z,6.40
2023-02-01T03:43:58.227Z,6.40
2023-02-01T03:46:34.001Z,6.40
2023-02-01T03:49:05.302Z,6.30
2023-02-01T03:51:34.898Z,6.30
2023-02-01T03:54:08.966Z,6.30
2023-02-01T03:56:39.812Z,6.30
2023-02-01T03:59:07.752Z,6.30
2023-02-01T04:01:35.737Z,6.30
2023-02-01T04:04:03.623Z,6.50
2023-02-01T04:06:31.463Z,6.70
2023-02-01T04:08:59.254Z,6.90
2023-02-01T04:11:30.203Z,7.00
2023-02-01T04:13:57.994Z,7.10
2023-02-01T04:16:25.814Z,7.10
2023-02-01T04:18:53.721Z,7.00
2023-02-01T04:21:21.495Z,6.80
2023-02-01T04:23:49.301Z,6.80
2023-02-01T04:26:17.286Z,6.80
2023-02-01T04:28:48.566Z,6.70
2023-02-01T04:31:16.985Z,6.70
2023-02-01T04:33:46.295Z,6.50
2023-02-01T04:36:14.086Z,6.50
2023-02-01T04:38:41.951Z,6.60
2023-02-01T04:41:09.758Z,6.60
2023-02-01T04:43:37.536Z,6.40
2023-02-01T04:46:06.870Z,6.30
2023-02-01T04:48:34.702Z,6.00
2023-02-01T04:51:02.505Z,5.90
2023-02-01T04:53:30.709Z,5.80
2023-02-01T04:55:58.552Z,5.80
2023-02-01T04:58:26.507Z,5.80
2023-02-01T05:00:54.345Z,5.70
2023-02-01T05:03:23.607Z,5.70
2023-02-01T05:05:52.791Z,5.80
2023-02-01T05:08:20.570Z,5.70
2023-02-01T05:10:48.380Z,5.70
2023-02-01T05:13:33.943Z,5.70
2023-02-01T05:16:02.053Z,5.60
2023-02-01T05:18:31.245Z,5.60
2023-02-01T05:20:59.080Z,5.60
2023-02-01T05:23:26.939Z,5.60
2023-02-01T05:25:59.697Z,5.60
2023-02-01T05:28:27.776Z,5.60
2023-02-01T05:30:56.100Z,5.60
2023-02-01T05:33:23.999Z,5.60
2023-02-01T05:35:53.193Z,5.60
2023-02-01T05:38:20.968Z,5.60
2023-02-01T05:40:50.509Z,5.60
2023-02-01T05:43:18.447Z,5.70
2023-02-01T05:45:46.267Z,5.70
2023-02-01T05:48:14.076Z,5.60
2023-02-01T05:50:42.007Z,5.70
2023-02-01T05:53:11.228Z,5.70
2023-02-01T05:55:39.439Z,5.60
2023-02-01T05:58:07.384Z,5.60
2023-02-01T06:00:35.216Z,5.70
2023-02-01T06:03:03.137Z,5.70
2023-02-01T06:05:31.237Z,5.70
2023-02-01T06:07:59.184Z,5.70
2023-02-01T06:10:28.431Z,5.70
2023-02-01T06:12:56.265Z,5.60
2023-02-01T06:15:24.103Z,5.70
2023-02-01T06:17:52.009Z,5.70
2023-02-01T06:20:20.320Z,5.60
2023-02-01T06:22:48.536Z,5.50
2023-02-01T06:25:17.629Z,5.50
2023-02-01T06:27:46.815Z,5.40
2023-02-01T06:30:15.340Z,5.40
2023-02-01T06:32:43.453Z,5.40
2023-02-01T06:35:17.086Z,5.30
2023-02-01T06:37:45.638Z,5.30
2023-02-01T06:40:14.338Z,5.30
2023-02-01T06:42:42.200Z,5.20
2023-02-01T06:45:12.335Z,5.20
2023-02-01T06:47:40.430Z,5.20
2023-02-01T06:50:09.556Z,5.20
2023-02-01T06:52:37.775Z,5.10
2023-02-01T06:55:06.308Z,5.10
2023-02-01T06:57:35.271Z,5.10
2023-02-01T07:00:03.810Z,5.10
2023-02-01T07:02:33.181Z,5.10
2023-02-01T07:05:01.265Z,5.00
2023-02-01T07:07:29.135Z,5.00
2023-02-01T07:09:56.989Z,5.00
2023-02-01T07:12:25.306Z,5.10
2023-02-01T07:14:53.166Z,5.10
2023-02-01T07:17:20.989Z,5.10
2023-02-01T07:19:50.156Z,5.10
2023-02-01T07:22:18.604Z,5.00
2023-02-01T07:24:46.486Z,5.10
2023-02-01T07:27:14.493Z,5.10
2023-02-01T07:29:42.298Z,5.10
2023-02-01T07:32:10.201Z,5.10
2023-02-01T07:34:38.044Z,5.10
2023-02-01T07:37:07.620Z,5.10
2023-02-01T07:39:35.460Z,5.10
2023-02-01T07:42:03.397Z,5.10
2023-02-01T07:44:31.189Z,5.20
2023-02-01T07:46:58.991Z,5.20
2023-02-01T07:49:26.948Z,5.30
2023-02-01T07:51:54.740Z,5.40
2023-02-01T07:54:23.894Z,5.50
2023-02-01T07:56:51.716Z,5.50
2023-02-01T07:59:19.549Z,5.60
2023-02-01T08:01:46.603Z,5.70
2023-02-01T08:04:15.212Z,5.80
2023-02-01T08:06:43.197Z,5.90
2023-02-01T08:09:12.159Z,6.00
2023-02-01T08:11:41.350Z,6.10
2023-02-01T08:14:09.214Z,6.20
2023-02-01T08:16:38.897Z,6.40
2023-02-01T08:19:06.865Z,6.60
2023-02-01T08:21:38.226Z,6.80
2023-02-01T08:24:07.707Z,7.00
2023-02-01T08:26:35.936Z,7.20
2023-02-01T08:29:08.252Z,7.30
2023-02-01T08:31:36.423Z,7.50
2023-02-01T08:34:05.648Z,7.60
2023-02-01T08:36:34.565Z,7.80
2023-02-01T08:39:06.501Z,7.80
2023-02-01T08:41:34.360Z,7.80
2023-02-01T08:44:02.277Z,7.70
2023-02-01T08:46:31.488Z,7.60
2023-02-01T08:48:59.507Z,7.50
2023-02-01T08:51:27.348Z,7.50
2023-02-01T08:53:55.184Z,7.40
2023-02-01T08:56:23.102Z,7.30
2023-02-01T08:58:50.976Z,7.20
2023-02-01T09:01:19.582Z,7.20
2023-02-01T09:03:48.838Z,7.10
2023-02-01T09:06:17.321Z,7.00
2023-02-01T09:08:45.538Z,6.90
2023-02-01T09:11:15.952Z,6.90
2023-02-01T09:13:44.059Z,6.90
2023-02-01T09:16:12.069Z,6.80
2023-02-01T09:18:50.327Z,6.70
2023-02-01T09:21:29.410Z,6.70
2023-02-01T09:23:57.304Z,6.60
2023-02-01T09:26:31.529Z,6.60
2023-02-01T09:29:00.403Z,6.60
2023-02-01T09:31:28.396Z,6.50
2023-02-01T09:33:56.249Z,6.60
2023-02-01T09:36:24.601Z,6.60
2023-02-01T09:38:54.546Z,6.80
2023-02-01T09:41:34.418Z,7.10
2023-02-01T09:44:08.658Z,7.60
2023-02-01T09:46:37.173Z,8.10
2023-02-01T09:49:08.376Z,8.40
2023-02-01T09:51:39.143Z,8.40
2023-02-01T09:54:13.802Z,8.20
2023-02-01T09:56:46.433Z,7.90
2023-02-01T09:59:28.255Z,7.70
2023-02-01T10:01:56.142Z,7.50
2023-02-01T10:04:23.970Z,7.40
2023-02-01T10:07:03.921Z,7.40
2023-02-01T10:09:47.254Z,7.40
2023-02-01T10:12:46.683Z,7.40
2023-02-01T10:15:28.969Z,7.30
2023-02-01T10:18:18.272Z,7.40
2023-02-01T10:21:01.450Z,7.70
2023-02-01T10:23:51.844Z,8.20
2023-02-01T10:26:23.023Z,8.30
2023-02-01T10:28:53.286Z,8.30
2023-02-01T10:31:24.686Z,8.20
2023-02-01T10:33:57.289Z,8.20
2023-02-01T10:36:31.444Z,8.20
2023-02-01T10:39:00.794Z,8.30
2023-02-01T10:41:34.977Z,8.20
2023-02-01T10:44:05.828Z,8.00
2023-02-01T10:46:35.716Z,7.90
2023-02-01T10:49:07.497Z,7.70
2023-02-01T10:51:45.211Z,7.60
2023-02-01T10:54:18.570Z,7.50
2023-02-01T10:56:48.368Z,7.40
2023-02-01T10:59:18.828Z,7.40
2023-02-01T11:01:48.826Z,7.50
2023-02-01T11:04:18.602Z,7.50
2023-02-01T11:06:47.748Z,7.50
2023-02-01T11:09:22.477Z,7.40
2023-02-01T11:11:59.529Z,7.40
2023-02-01T11:14:39.116Z,7.40
2023-02-01T11:17:27.168Z,7.50
2023-02-01T11:20:02.719Z,7.50
2023-02-01T11:22:31.352Z,7.60
2023-02-01T11:25:01.241Z,7.60
2023-02-01T11:27:30.712Z,7.60
2023-02-01T11:30:01.671Z,7.50
2023-02-01T11:32:30.162Z,7.40
2023-02-01T11:35:02.583Z,7.50
2023-02-01T11:37:35.232Z,7.70
2023-02-01T11:40:06.665Z,7.90
2023-02-01T11:42:35.802Z,7.90
2023-02-01T11:45:21.518Z,7.90
2023-02-01T11:47:54.625Z,8.00
2023-02-01T11:50:31.740Z,8.00
2023-02-01T11:53:20.727Z,8.00
2023-02-01T11:56:06.406Z,7.80
2023-02-01T11:59:02.367Z,7.80
2023-02-01T12:01:39.655Z,7.70
2023-02-01T12:04:44.145Z,7.70
2023-02-01T12:07:19.693Z,7.70
2023-02-01T12:10:04.318Z,7.80
2023-02-01T12:12:41.461Z,8.00
2023-02-01T12:15:30.196Z,8.10
2023-02-01T12:18:23.651Z,8.00
2023-02-01T12:21:08.616Z,7.90
2023-02-01T12:23:55.014Z,7.80
2023-02-01T12:26:43.015Z,7.80
2023-02-01T12:29:43.478Z,7.80
2023-02-01T12:32:26.793Z,7.80
2023-02-01T12:35:15.089Z,7.80
2023-02-01T12:37:57.055Z,7.70
2023-02-01T12:40:36.410Z,7.70
2023-02-01T12:43:11.753Z,7.70
2023-02-01T12:45:44.681Z,7.70
2023-02-01T12:48:29.775Z,7.70
2023-02-01T12:51:02.845Z,7.60
2023-02-01T12:53:39.987Z,7.60
2023-02-01T12:56:14.304Z,7.50
2023-02-01T12:58:47.183Z,7.50
2023-02-01T13:01:20.320Z,7.40
2023-02-01T13:04:00.884Z,7.40
2023-02-01T13:06:33.712Z,7.30
2023-02-01T13:09:07.792Z,7.20
2023-02-01T13:11:38.741Z,7.30
2023-02-01T13:14:15.778Z,7.20
2023-02-01T13:16:46.738Z,7.30
2023-02-01T13:19:21.151Z,7.20
2023-02-01T13:21:53.236Z,7.30
2023-02-01T13:24:32.007Z,7.20
2023-02-01T13:26:59.918Z,7.30
2023-02-01T13:29:30.016Z,7.30
2023-02-01T13:32:18.222Z,7.30
2023-02-01T13:35:05.421Z,7.30
2023-02-01T13:37:54.614Z,7.30
2023-02-01T13:40:38.585Z,7.30
2023-02-01T13:43:13.370Z,7.30
2023-02-01T13:45:46.778Z,7.30
2023-02-01T13:48:23.968Z,7.40
2023-02-01T13:50:56.999Z,7.40
2023-02-01T13:53:30.365Z,7.40
2023-02-01T13:56:01.659Z,7.40
2023-02-01T13:58:35.109Z,7.40
2023-02-01T14:01:45.729Z,7.40
2023-02-01T14:04:53.509Z,7.50
2023-02-01T14:07:25.007Z,7.50
2023-02-01T14:09:54.441Z,7.50
2023-02-01T14:12:49.339Z,7.60
2023-02-01T14:15:23.890Z,7.70
2023-02-01T14:17:52.344Z,7.70
2023-02-01T14:20:52.954Z,7.70
2023-02-01T14:23:27.209Z,7.70
2023-02-01T14:26:23.830Z,7.80
2023-02-01T14:28:57.672Z,7.80
2023-02-01T14:31:50.643Z,7.90
2023-02-01T14:34:27.425Z,7.90
2023-02-01T14:37:00.541Z,7.90
2023-02-01T14:39:37.005Z,7.90
2023-02-01T14:42:12.896Z,7.90
2023-02-01T14:44:40.751Z,7.90
2023-02-01T14:47:36.315Z,7.90
2023-02-01T14:50:25.734Z,7.90
2023-02-01T14:53:05.794Z,7.90
2023-02-01T14:55:39.716Z,7.90
2023-02-01T14:58:17.017Z,8.00
2023-02-01T15:00:51.207Z,7.90
2023-02-01T15:03:35.602Z,8.00
2023-02-01T15:06:06.777Z,8.00
2023-02-01T15:08:41.138Z,8.00
2023-02-01T15:11:15.881Z,8.00
2023-02-01T15:13:52.871Z,8.00
2023-02-01T15:16:23.045Z,8.00
2023-02-01T15:18:51.472Z,7.90
2023-02-01T15:21:29.284Z,7.90
2023-02-01T15:24:13.015Z,7.90
2023-02-01T15:26:42.474Z,7.90
2023-02-01T15:29:17.077Z,7.90
2023-02-01T15:31:47.076Z,7.80
2023-02-01T15:34:15.045Z,7.80
2023-02-01T15:36:56.620Z,7.80
2023-02-01T15:39:31.672Z,7.90
2023-02-01T15:42:03.806Z,7.90
2023-02-01T15:44:35.631Z,7.80
2023-02-01T15:47:10.561Z,7.80
2023-02-01T15:49:41.599Z,7.80
2023-02-01T15:52:22.096Z,7.80
2023-02-01T15:54:54.126Z,7.80
2023-02-01T15:57:31.462Z,7.80
2023-02-01T16:00:01.097Z,7.80
2023-02-01T16:02:35.167Z,7.70
2023-02-01T16:05:05.141Z,7.70
2023-02-01T16:07:35.819Z,7.80
2023-02-01T16:10:22.570Z,7.70
2023-02-01T16:12:53.862Z,7.70
2023-02-01T16:15:21.921Z,7.70
2023-02-01T16:17:50.144Z,7.70
2023-02-01T16:20:18.547Z,7.70
2023-02-01T16:22:46.347Z,7.70
2023-02-01T16:25:14.255Z,7.70
2023-02-01T16:27:42.203Z,7.60
2023-02-01T16:30:12.546Z,7.70
2023-02-01T16:32:40.749Z,7.60
2023-02-01T16:35:19.943Z,7.60
2023-02-01T16:37:47.911Z,7.50
2023-02-01T16:40:16.269Z,7.50
2023-02-01T16:42:44.104Z,7.50
2023-02-01T16:45:13.500Z,7.50
2023-02-01T16:47:46.845Z,7.50
2023-02-01T16:50:23.563Z,7.40
2023-02-01T16:52:51.867Z,7.40
2023-02-01T16:55:22.559Z,7.40
2023-02-01T16:57:51.417Z,7.40
2023-02-01T17:00:24.882Z,7.40
2023-02-01T17:02:53.687Z,7.30
2023-02-01T17:05:21.849Z,7.30
2023-02-01T17:07:50.070Z,7.30
2023-02-01T17:10:34.108Z,7.30
2023-02-01T17:13:03.453Z,7.30
2023-02-01T17:15:37.229Z,7.30
2023-02-01T17:18:05.441Z,7.30
2023-02-01T17:20:34.128Z,7.20
2023-02-01T17:23:02.473Z,7.30
2023-02-01T17:25:32.153Z,7.20
2023-02-01T17:28:00.190Z,7.20
2023-02-01T17:30:28.341Z,7.20
2023-02-01T17:32:57.596Z,7.20
2023-02-01T17:35:29.185Z,7.20
2023-02-01T17:37:57.706Z,7.20
2023-02-01T17:40:25.667Z,7.20
2023-02-01T17:42:57.535Z,7.20
2023-02-01T17:45:36.416Z,7.20
2023-02-01T17:48:07.241Z,7.20
2023-02-01T17:50:37.807Z,7.10
2023-02-01T17:53:09.579Z,7.10
2023-02-01T17:55:41.600Z,7.00
2023-02-01T17:58:10.609Z,7.00
2023-02-01T18:00:39.201Z,7.00
2023-02-01T18:03:16.604Z,7.00
2023-02-01T18:05:50.754Z,7.00
2023-02-01T18:08:21.576Z,7.00
2023-02-01T18:10:51.076Z,7.00
2023-02-01T18:13:19.205Z,7.00
2023-02-01T18:15:47.061Z,7.00
2023-02-01T18:18:16.218Z,7.00
2023-02-01T18:20:46.068Z,6.90
2023-02-01T18:23:19.549Z,7.00
2023-02-01T18:25:48.113Z,7.00
2023-02-01T18:28:16.894Z,7.00
2023-02-01T18:30:46.886Z,6.90
2023-02-01T18:33:19.372Z,6.80
2023-02-01T18:35:47.887Z,6.90
2023-02-01T18:38:16.001Z,6.90
2023-02-01T18:40:49.949Z,6.80
2023-02-01T18:43:17.936Z,6.80
2023-02-01T18:45:46.652Z,6.80
2023-02-01T18:48:19.456Z,6.80
2023-02-01T18:50:47.732Z,6.80
2023-02-01T18:53:17.296Z,6.70
2023-02-01T18:55:45.149Z,6.80
2023-02-01T18:58:15.914Z,6.70
2023-02-01T19:00:44.887Z,6.70
2023-02-01T19:03:13.247Z,6.70
2023-02-01T19:05:43.069Z,6.70
2023-02-01T19:08:11.207Z,6.70
2023-02-01T19:10:39.308Z,6.70
2023-02-01T19:13:07.588Z,6.70
2023-02-01T19:15:40.098Z,6.70
2023-02-01T19:18:09.213Z,6.80
2023-02-01T19:20:41.235Z,6.70
2023-02-01T19:23:10.483Z,6.70
2023-02-01T19:25:38.839Z,6.70
2023-02-01T19:28:06.810Z,6.80
2023-02-01T19:30:34.868Z,6.80
2023-02-01T19:33:04.413Z,6.80
2023-02-01T19:35:32.577Z,6.80
2023-02-01T19:38:00.929Z,6.90
2023-02-01T19:40:30.173Z,6.90
2023-02-01T19:42:58.006Z,6.90
2023-02-01T19:45:26.168Z,6.90
2023-02-01T19:47:54.145Z,6.90
2023-02-01T19:50:23.698Z,6.90
2023-02-01T19:52:51.560Z,6.90
2023-02-01T19:55:19.404Z,6.90
2023-02-01T19:57:49.073Z,6.90
2023-02-01T20:00:16.496Z,6.90
2023-02-01T20:02:44.337Z,6.90
2023-02-01T20:05:12.207Z,6.90
2023-02-01T20:07:40.252Z,6.80
2023-02-01T20:10:09.501Z,6.80
2023-02-01T20:12:37.336Z,6.90
2023-02-01T20:15:08.238Z,6.80
2023-02-01T20:17:36.412Z,6.90
2023-02-01T20:20:05.068Z,6.90
2023-02-01T20:22:33.409Z,6.80
2023-02-01T20:25:03.667Z,6.80
2023-02-01T20:27:32.386Z,6.80
2023-02-01T20:30:00.198Z,6.80
2023-02-01T20:32:29.322Z,6.70
2023-02-01T20:34:57.181Z,6.80
2023-02-01T20:37:36.882Z,6.80
2023-02-01T20:40:05.491Z,6.80
2023-02-01T20:42:33.283Z,6.80
2023-02-01T20:45:01.098Z,6.80
2023-02-01T20:47:30.294Z,6.80
2023-02-01T20:49:58.191Z,6.90
2023-02-01T20:52:26.056Z,6.90
2023-02-01T20:54:54.112Z,6.90
2023-02-01T20:57:21.933Z,6.90
2023-02-01T20:59:50.934Z,6.90
2023-02-01T21:02:19.077Z,6.90
2023-02-01T21:04:48.221Z,6.80
2023-02-01T21:07:16.039Z,6.80
2023-02-01T21:09:43.958Z,6.80
2023-02-01T21:12:12.163Z,6.80
2023-02-01T21:14:40.157Z,6.80
2023-02-01T21:17:07.986Z,6.90
2023-02-01T21:19:43.392Z,6.90
2023-02-01T21:22:13.933Z,6.90
2023-02-01T21:24:42.989Z,6.90
2023-02-01T21:27:11.221Z,6.90
2023-02-01T21:29:39.543Z,6.90
2023-02-01T21:32:08.453Z,6.90
2023-02-01T21:34:36.670Z,6.90
2023-02-01T21:37:04.723Z,6.90
2023-02-01T21:39:33.966Z,6.90
2023-02-01T21:42:18.352Z,6.90
2023-02-01T21:44:47.464Z,6.90
2023-02-01T21:47:17.300Z,6.80
2023-02-01T21:49:46.203Z,6.90
2023-02-01T21:52:14.920Z,6.90
2023-02-01T21:54:44.179Z,6.90
2023-02-01T21:57:13.130Z,6.90
2023-02-01T21:59:41.888Z,7.00
2023-02-01T22:02:16.636Z,6.90
2023-02-01T22:04:45.045Z,6.90
2023-02-01T22:07:13.417Z,6.80
2023-02-01T22:09:41.290Z,6.80
2023-02-01T22:12:12.263Z,6.90
2023-02-01T22:14:40.435Z,6.90
2023-02-01T22:17:08.396Z,6.90
2023-02-01T22:19:36.244Z,7.00
2023-02-01T22:22:04.056Z,7.10
2023-02-01T22:24:31.919Z,7.10
2023-02-01T22:27:13.343Z,7.10
2023-02-01T22:29:44.477Z,7.20
2023-02-01T22:32:13.794Z,7.20
2023-02-01T22:34:42.106Z,7.30
2023-02-01T22:37:11.232Z,7.30
2023-02-01T22:39:40.324Z,7.30
2023-02-01T22:42:08.367Z,7.20
2023-02-01T22:44:36.202Z,7.20
2023-02-01T22:47:05.408Z,7.30
2023-02-01T22:49:33.249Z,7.20
2023-02-01T22:52:01.559Z,7.30
2023-02-01T22:54:29.374Z,7.20
2023-02-01T22:56:57.153Z,7.30
2023-02-01T22:59:25.196Z,7.20
2023-02-01T23:01:53.021Z,7.10
2023-02-01T23:04:22.264Z,7.10
2023-02-01T23:06:50.550Z,7.00
2023-02-01T23:09:20.024Z,7.00
2023-02-01T23:11:48.079Z,7.10
2023-02-01T23:14:16.606Z,7.10
2023-02-01T23:16:46.266Z,7.10
2023-02-01T23:19:14.256Z,7.10
2023-02-01T23:21:43.648Z,7.00
2023-02-01T23:24:11.450Z,7.00
2023-02-01T23:26:39.969Z,7.00
2023-02-01T23:29:07.806Z,7.10
2023-02-01T23:31:36.295Z,7.10
2023-02-01T23:34:04.925Z,7.10
2023-02-01T23:36:33.977Z,7.00
2023-02-01T23:39:03.324Z,7.00
2023-02-01T23:41:31.728Z,7.00
2023-02-01T23:43:58.674Z,7.00
2023-02-01T23:46:28.067Z,7.00
2023-02-01T23:48:56.509Z,7.00
2023-02-01T23:51:25.391Z,7.00
2023-02-01T23:53:53.577Z,7.00
2023-02-01T23:56:24.811Z,7.00
2023-02-01T23:58:53.741Z,7.00
